Berzelia, Georgia
Current Conditions -  °F | °C
As of 9:35 PM on Wednesday 17 Dec 2014 (Local Time) from KHQU Reporting Station
Clear Clear  
Wind Chill: 46°   Ceiling: Unl
Heat Index: 46°   Visibility: 10mi
Dew Point: 42°   Wind: 0mph
Humidity: 87%   Direction: NA
Pressure: 30.16"   Gusts: NA
Location:  33.4134°N, 82.3106°W
Report Text: KHQU 180235Z AUTO 00000KT 10SM CLR 08/06 A3016 RMK AO1 T00760055
Loading
Personal Weather Stations






























Interactive Weather Map New forecast layout! Learn more

10-Day Weather Forecast

Advertisements
Track Severe Weather on mobile